Time;durP1;ratioP1;P1;durP2;ratioP2;P2;SDS_P1;SDS_P2;PMS_P1;PMS_P2;Temp;Humidity;BMP_temperature;BMP_pressure;BME280_temperature;BME280_humidity;BME280_pressure;Samples;Min_cycle;Max_cycle;Signal;HPM_P1;HPM_P2
2021/05/23 00:02:18;;;;;;;1999.90;999.90;;;;;;;12.49;86.23;95818.22;5070004;28;20232;-60
2021/05/23 00:04:46;;;;;;;1999.90;999.90;;;;;;;12.41;87.10;95806.66;5069832;28;20664;-61
2021/05/23 00:07:14;;;;;;;1999.90;999.90;;;;;;;12.36;87.11;95804.19;5070148;28;20204;-60
2021/05/23 00:09:41;;;;;;;1999.90;999.90;;;;;;;12.33;87.65;95809.22;5069892;28;20201;-60
2021/05/23 00:12:15;;;;;;;1999.90;999.90;;;;;;;12.39;87.17;95816.63;5069797;28;20279;-60
2021/05/23 00:14:41;;;;;;;1999.90;999.90;;;;;;;12.40;86.52;95820.00;5070115;28;20196;-59
2021/05/23 00:17:08;;;;;;;1999.90;999.90;;;;;;;12.37;87.00;95820.59;5069507;28;20232;-61
2021/05/23 00:19:36;;;;;;;1999.90;999.90;;;;;;;12.35;87.23;95818.25;5070125;28;20319;-60
2021/05/23 00:22:04;;;;;;;1999.90;999.90;;;;;;;12.33;87.08;95820.41;5069470;28;20236;-61
2021/05/23 00:24:31;;;;;;;1999.90;999.90;;;;;;;12.29;87.37;95823.91;5069668;28;20262;-61
2021/05/23 00:26:58;;;;;;;1999.90;999.90;;;;;;;12.25;88.10;95815.91;5069476;28;20192;-61
2021/05/23 00:29:26;;;;;;;1999.90;999.90;;;;;;;12.27;87.91;95818.22;5069768;28;20667;-61
2021/05/23 00:31:53;;;;;;;1999.90;999.90;;;;;;;12.07;89.36;95828.03;5069519;28;20211;-62
2021/05/23 00:34:20;;;;;;;1999.90;999.90;;;;;;;11.78;90.78;95821.63;5071994;28;20262;-61
2021/05/23 00:36:48;;;;;;;1999.90;999.90;;;;;;;11.92;90.36;95822.38;5073393;28;20188;-61
2021/05/23 00:39:14;;;;;;;1999.90;999.90;;;;;;;11.99;89.95;95820.91;5073383;28;20196;-61
2021/05/23 00:41:41;;;;;;;1999.90;999.90;;;;;;;11.82;90.70;95825.19;5073180;28;20326;-62
2021/05/23 00:44:08;;;;;;;1999.90;999.90;;;;;;;11.88;90.96;95824.78;5073373;28;20200;-61
2021/05/23 00:46:36;;;;;;;1999.90;999.90;;;;;;;11.84;90.83;95826.44;5073625;28;20291;-62
2021/05/23 00:49:03;;;;;;;1999.90;999.90;;;;;;;11.71;90.84;95827.19;5073107;28;20192;-60
2021/05/23 00:51:30;;;;;;;1999.90;999.90;;;;;;;11.68;90.02;95827.78;5072972;28;20197;-61
2021/05/23 00:53:57;;;;;;;1999.90;999.90;;;;;;;11.67;90.85;95834.03;5072832;28;20196;-61
2021/05/23 00:56:24;;;;;;;1999.90;999.90;;;;;;;11.64;92.69;95827.59;5073081;28;20222;-61
2021/05/23 00:58:50;;;;;;;1999.90;999.90;;;;;;;11.71;92.24;95836.84;5073131;28;20201;-61
2021/05/23 01:02:03;;;;;;;1999.90;999.90;;;;;;;11.78;91.22;95829.44;5072923;28;20581;-62
2021/05/23 01:04:30;;;;;;;1999.90;999.90;;;;;;;11.63;91.94;95833.09;5072746;28;20197;-61
2021/05/23 01:06:58;;;;;;;1999.90;999.90;;;;;;;11.54;92.30;95832.25;5072937;28;20196;-61
2021/05/23 01:09:25;;;;;;;1999.90;999.90;;;;;;;11.52;91.99;95834.34;5072695;28;20199;-61
2021/05/23 01:12:24;;;;;;;1999.90;999.90;;;;;;;11.49;92.57;95834.94;5072671;28;20200;-61
2021/05/23 01:14:55;;;;;;;1999.90;999.90;;;;;;;11.56;92.21;95838.69;5072504;28;20196;-61
2021/05/23 01:17:31;;;;;;;1999.90;999.90;;;;;;;11.53;92.37;95848.91;5072473;28;20311;-63
2021/05/23 01:20:10;;;;;;;1999.90;999.90;;;;;;;11.37;93.01;95845.03;5072748;28;20196;-62
2021/05/23 01:22:41;;;;;;;1999.90;999.90;;;;;;;11.34;92.22;95840.44;5072480;28;20634;-62
2021/05/23 01:25:12;;;;;;;1999.90;999.90;;;;;;;11.41;92.40;95838.97;5072482;28;20221;-62
2021/05/23 01:27:45;;;;;;;1999.90;999.90;;;;;;;11.30;93.02;95839.47;5072829;28;20197;-61
2021/05/23 01:30:15;;;;;;;1999.90;999.90;;;;;;;11.17;93.50;95823.56;5072965;28;20240;-62
2021/05/23 01:32:45;;;;;;;1999.90;999.90;;;;;;;11.18;93.28;95827.69;5072622;28;20211;-60
2021/05/23 01:35:17;;;;;;;1999.90;999.90;;;;;;;11.14;93.97;95831.16;5072718;28;20240;-61
2021/05/23 01:37:49;;;;;;;1999.90;999.90;;;;;;;10.95;93.99;95831.25;5072269;28;20193;-61
2021/05/23 01:40:19;;;;;;;1999.90;999.90;;;;;;;10.78;95.19;95833.59;5072332;28;20197;-62
2021/05/23 01:42:48;;;;;;;1999.90;999.90;;;;;;;10.67;96.43;95832.22;5072210;28;20224;-63
2021/05/23 01:45:15;;;;;;;1999.90;999.90;;;;;;;10.60;97.18;95831.84;5070768;28;20193;-61
2021/05/23 01:47:43;;;;;;;1999.90;999.90;;;;;;;10.59;97.62;95833.66;5071958;28;20192;-61
2021/05/23 01:50:10;;;;;;;1999.90;999.90;;;;;;;10.66;97.38;95841.84;5072123;28;20201;-61
2021/05/23 01:52:47;;;;;;;1999.90;999.90;;;;;;;10.65;98.10;95844.75;5072472;28;20220;-61
2021/05/23 01:55:15;;;;;;;1999.90;999.90;;;;;;;10.66;97.85;95841.09;5071864;28;20199;-61
2021/05/23 01:57:43;;;;;;;1999.90;999.90;;;;;;;10.61;97.28;95828.19;5071803;28;20283;-61
2021/05/23 02:00:12;;;;;;;1999.90;999.90;;;;;;;10.57;97.57;95827.19;5071851;28;20193;-59
2021/05/23 02:02:39;;;;;;;1999.90;999.90;;;;;;;10.52;97.76;95822.06;5071747;28;20257;-62
2021/05/23 02:05:08;;;;;;;1999.90;999.90;;;;;;;10.52;97.93;95830.63;5071611;28;20200;-62
2021/05/23 02:07:35;;;;;;;1999.90;999.90;;;;;;;10.55;97.31;95829.31;5072028;28;20230;-62
2021/05/23 02:10:04;;;;;;;1999.90;999.90;;;;;;;10.54;97.44;95832.97;5071743;28;20199;-61
2021/05/23 02:12:33;;;;;;;1999.90;999.90;;;;;;;10.50;97.20;95829.41;5071756;28;20207;-61
2021/05/23 02:15:01;;;;;;;1999.90;999.90;;;;;;;10.53;97.33;95831.41;5071558;28;20702;-61
2021/05/23 02:17:27;;;;;;;1999.90;999.90;;;;;;;10.38;97.68;95844.63;5071641;28;20236;-60
2021/05/23 02:19:54;;;;;;;1999.90;999.90;;;;;;;10.04;98.43;95843.03;5071467;28;20636;-61
2021/05/23 02:22:21;;;;;;;1999.90;999.90;;;;;;;10.12;98.97;95847.56;5071513;28;20327;-61
2021/05/23 02:24:48;;;;;;;1999.90;999.90;;;;;;;10.20;98.33;95841.00;5071287;28;20203;-63
2021/05/23 02:27:15;;;;;;;1999.90;999.90;;;;;;;10.30;97.32;95839.03;5071254;28;20303;-61
2021/05/23 02:29:41;;;;;;;1999.90;999.90;;;;;;;10.33;97.45;95835.88;5071202;28;20336;-62
2021/05/23 02:32:10;;;;;;;1999.90;999.90;;;;;;;10.35;97.71;95843.41;5071011;28;20196;-61
2021/05/23 02:34:46;;;;;;;1999.90;999.90;;;;;;;10.18;98.42;95846.47;5071452;28;20201;-61
2021/05/23 02:37:13;;;;;;;1999.90;999.90;;;;;;;10.17;98.58;95844.94;5070950;28;20691;-60
2021/05/23 02:39:40;;;;;;;1999.90;999.90;;;;;;;10.16;98.56;95838.19;5071170;28;20197;-63
2021/05/23 02:42:07;;;;;;;1999.90;999.90;;;;;;;10.27;98.21;95844.78;5070802;28;20232;-61
2021/05/23 02:44:34;;;;;;;1999.90;999.90;;;;;;;10.31;98.43;95845.75;5070772;28;20580;-61
2021/05/23 02:47:01;;;;;;;1999.90;999.90;;;;;;;10.31;98.18;95840.56;5071154;28;20208;-61
2021/05/23 02:49:29;;;;;;;1999.90;999.90;;;;;;;10.35;97.86;95836.38;5070946;28;20228;-62
2021/05/23 02:51:56;;;;;;;1999.90;999.90;;;;;;;10.34;98.04;95841.84;5070787;28;20193;-60
2021/05/23 02:54:23;;;;;;;1999.90;999.90;;;;;;;10.45;97.62;95855.47;5070574;28;20659;-63
2021/05/23 02:56:49;;;;;;;1999.90;999.90;;;;;;;10.45;97.13;95851.03;5070167;28;20218;-62
2021/05/23 02:59:16;;;;;;;1999.90;999.90;;;;;;;10.42;97.56;95853.41;5070623;28;20261;-63
2021/05/23 03:01:43;;;;;;;1999.90;999.90;;;;;;;10.41;97.96;95862.28;5070494;28;20196;-61
2021/05/23 03:04:10;;;;;;;1999.90;999.90;;;;;;;10.39;97.78;95857.34;5070776;28;20731;-62
2021/05/23 03:06:37;;;;;;;1999.90;999.90;;;;;;;10.40;98.23;95861.50;5070792;28;20273;-61
2021/05/23 03:09:04;;;;;;;1999.90;999.90;;;;;;;10.47;97.64;95869.69;5070351;28;20192;-62
2021/05/23 03:11:31;;;;;;;1999.90;999.90;;;;;;;10.56;97.61;95869.84;5070309;28;20777;-62
2021/05/23 03:13:58;;;;;;;1999.90;999.90;;;;;;;10.55;96.92;95870.91;5070397;28;20192;-61
2021/05/23 03:16:24;;;;;;;1999.90;999.90;;;;;;;10.55;97.04;95865.69;5070231;28;20326;-63
2021/05/23 03:18:52;;;;;;;1999.90;999.90;;;;;;;10.53;97.32;95862.59;5070384;28;20592;-62
2021/05/23 03:21:18;;;;;;;1999.90;999.90;;;;;;;10.68;96.91;95870.94;5070091;28;20274;-61
2021/05/23 03:23:46;;;;;;;1999.90;999.90;;;;;;;10.59;96.18;95872.66;5070197;28;20281;-60
2021/05/23 03:26:13;;;;;;;1999.90;999.90;;;;;;;10.68;96.41;95890.94;5070138;28;20192;-60
2021/05/23 03:28:40;;;;;;;1999.90;999.90;;;;;;;10.64;96.16;95885.56;5070223;28;20193;-61
2021/05/23 03:31:06;;;;;;;1999.90;999.90;;;;;;;10.57;97.08;95885.13;5070377;28;20682;-60
2021/05/23 03:33:33;;;;;;;1999.90;999.90;;;;;;;11.46;97.47;95884.94;5070001;28;20287;-62
2021/05/23 03:36:00;;;;;;;1999.90;999.90;;;;;;;12.04;90.90;95891.13;5070199;28;20589;-61
2021/05/23 03:38:27;;;;;;;1999.90;999.90;;;;;;;12.10;88.45;95883.22;5070247;28;20685;-61
2021/05/23 03:40:54;;;;;;;1999.90;999.90;;;;;;;11.94;88.35;95888.75;5070315;28;20752;-61
2021/05/23 03:43:21;;;;;;;1999.90;999.90;;;;;;;11.75;89.61;95888.09;5070216;28;20683;-61
2021/05/23 03:45:48;;;;;;;1999.90;999.90;;;;;;;11.62;90.57;95897.41;5070028;28;20663;-61
2021/05/23 03:48:15;;;;;;;1999.90;999.90;;;;;;;11.51;90.79;95892.66;5069931;28;20203;-60
2021/05/23 03:50:42;;;;;;;1999.90;999.90;;;;;;;11.39;91.91;95890.56;5070140;28;20205;-61
2021/05/23 03:53:08;;;;;;;1999.90;999.90;;;;;;;11.40;92.50;95905.09;5069947;28;20204;-60
2021/05/23 03:55:35;;;;;;;1999.90;999.90;;;;;;;11.40;93.43;95891.31;5069843;28;20667;-60
2021/05/23 03:58:03;;;;;;;1999.90;999.90;;;;;;;11.42;93.29;95899.59;5069897;28;20232;-62
2021/05/23 04:00:30;;;;;;;1999.90;999.90;;;;;;;11.40;94.08;95897.31;5069948;28;20199;-63
2021/05/23 04:02:57;;;;;;;1999.90;999.90;;;;;;;11.35;94.05;95909.63;5070077;28;20234;-60
2021/05/23 04:05:26;;;;;;;1999.90;999.90;;;;;;;11.48;94.12;95907.03;5069771;28;20275;-61
2021/05/23 04:07:53;;;;;;;1999.90;999.90;;;;;;;11.62;93.44;95909.63;5069763;28;20231;-60
2021/05/23 04:10:24;;;;;;;1999.90;999.90;;;;;;;11.69;93.25;95910.03;5073827;28;20279;-61
2021/05/23 04:12:52;;;;;;;1999.90;999.90;;;;;;;11.78;92.49;95923.94;5074003;28;20204;-60
2021/05/23 04:15:20;;;;;;;1999.90;999.90;;;;;;;11.89;91.54;95917.50;5074263;28;20196;-60
2021/05/23 04:17:48;;;;;;;1999.90;999.90;;;;;;;12.00;91.39;95925.88;5073397;28;20276;-61
2021/05/23 04:20:18;;;;;;;1999.90;999.90;;;;;;;12.11;91.53;95929.03;5073674;28;20682;-60
2021/05/23 04:22:46;;;;;;;1999.90;999.90;;;;;;;12.23;90.77;95926.69;5073934;28;20232;-59
2021/05/23 04:25:14;;;;;;;1999.90;999.90;;;;;;;12.58;89.46;95925.16;5073598;28;20662;-62
2021/05/23 04:27:42;;;;;;;1999.90;999.90;;;;;;;13.07;87.15;95921.69;5073625;28;20203;-61
2021/05/23 04:30:11;;;;;;;1999.90;999.90;;;;;;;13.58;85.24;95926.44;5073385;28;20195;-63
2021/05/23 04:32:41;;;;;;;1999.90;999.90;;;;;;;14.33;82.06;95926.19;5073289;28;20202;-60
2021/05/23 04:35:10;;;;;;;1999.90;999.90;;;;;;;14.88;77.78;95917.75;5073286;28;20663;-62
2021/05/23 04:37:38;;;;;;;1999.90;999.90;;;;;;;15.07;75.46;95923.44;5073606;28;20218;-60
2021/05/23 04:40:07;;;;;;;1999.90;999.90;;;;;;;15.38;74.35;95923.97;5073682;28;20200;-63
2021/05/23 04:42:34;;;;;;;1999.90;999.90;;;;;;;15.47;73.81;95923.94;5073172;28;20228;-61
2021/05/23 04:45:00;;;;;;;1999.90;999.90;;;;;;;15.56;73.26;95929.19;5073201;28;20668;-63
2021/05/23 04:47:28;;;;;;;1999.90;999.90;;;;;;;15.47;73.61;95924.72;5073132;28;20189;-60
2021/05/23 04:49:57;;;;;;;1999.90;999.90;;;;;;;15.26;75.05;95926.47;5073102;28;20235;-61
2021/05/23 04:52:23;;;;;;;1999.90;999.90;;;;;;;15.22;75.83;95917.69;5072934;28;20679;-59
2021/05/23 04:54:51;;;;;;;1999.90;999.90;;;;;;;15.40;75.31;95913.16;5072969;28;20231;-61
2021/05/23 04:57:17;;;;;;;1999.90;999.90;;;;;;;15.45;74.94;95924.25;5072851;28;20249;-61
2021/05/23 04:59:47;;;;;;;1999.90;999.90;;;;;;;15.65;75.07;95924.66;5072931;28;20758;-61
2021/05/23 05:02:13;;;;;;;1999.90;999.90;;;;;;;15.65;74.48;95922.81;5072867;28;20658;-60
2021/05/23 05:04:41;;;;;;;1999.90;999.90;;;;;;;15.78;73.75;95932.34;5073051;28;20197;-61
2021/05/23 05:07:09;;;;;;;1999.90;999.90;;;;;;;15.87;72.09;95929.69;5072776;28;20188;-63
2021/05/23 05:09:36;;;;;;;1999.90;999.90;;;;;;;15.89;71.94;95943.22;5072671;28;20592;-60
2021/05/23 05:12:03;;;;;;;1999.90;999.90;;;;;;;16.16;71.69;95947.25;5072970;28;20242;-60
2021/05/23 05:14:30;;;;;;;1999.90;999.90;;;;;;;16.25;69.66;95950.59;5072769;28;20189;-61
2021/05/23 05:16:56;;;;;;;1999.90;999.90;;;;;;;16.21;71.40;95947.06;5072483;28;20242;-60
2021/05/23 05:19:23;;;;;;;1999.90;999.90;;;;;;;16.26;72.81;95942.41;5072549;28;20189;-60
2021/05/23 05:21:50;;;;;;;1999.90;999.90;;;;;;;16.24;73.45;95928.06;5072264;28;20605;-60
2021/05/23 05:24:18;;;;;;;1999.90;999.90;;;;;;;16.67;71.45;95931.22;5072409;28;20224;-60
2021/05/23 05:26:45;;;;;;;1999.90;999.90;;;;;;;16.98;68.84;95925.56;5072110;28;20193;-60
2021/05/23 05:29:12;;;;;;;1999.90;999.90;;;;;;;17.02;68.72;95930.94;5072279;28;20291;-60
2021/05/23 05:31:39;;;;;;;1999.90;999.90;;;;;;;17.07;68.76;95922.84;5072569;28;20241;-61
2021/05/23 05:34:06;;;;;;;1999.90;999.90;;;;;;;17.15;67.84;95925.38;5072334;28;20242;-63
2021/05/23 05:36:33;;;;;;;1999.90;999.90;;;;;;;17.13;68.76;95911.81;5072267;28;20197;-61
2021/05/23 05:39:00;;;;;;;1999.90;999.90;;;;;;;17.08;70.80;95922.53;5072485;28;20275;-63
2021/05/23 05:41:27;;;;;;;1999.90;999.90;;;;;;;17.22;68.72;95932.75;5072182;28;20236;-61
2021/05/23 05:43:54;;;;;;;1999.90;999.90;;;;;;;17.46;68.43;95929.41;5072042;28;20669;-61
2021/05/23 05:46:21;;;;;;;1999.90;999.90;;;;;;;17.64;67.94;95928.91;5072058;28;20275;-62
2021/05/23 05:48:48;;;;;;;1999.90;999.90;;;;;;;17.79;69.95;95929.34;5072107;28;20224;-60
2021/05/23 05:51:15;;;;;;;1999.90;999.90;;;;;;;17.54;70.18;95939.03;5072085;28;20196;-61
2021/05/23 05:53:42;;;;;;;1999.90;999.90;;;;;;;17.64;70.69;95941.28;5072283;28;20291;-61
2021/05/23 05:56:09;;;;;;;1999.90;999.90;;;;;;;17.96;70.61;95940.44;5071858;28;20277;-61
2021/05/23 05:58:38;;;;;;;1999.90;999.90;;;;;;;18.17;70.38;95942.19;5071703;28;20189;-62
2021/05/23 06:01:05;;;;;;;1999.90;999.90;;;;;;;18.46;66.65;95945.31;5071930;28;20197;-61
2021/05/23 06:03:32;;;;;;;1999.90;999.90;;;;;;;18.45;65.60;95941.16;5071820;28;20224;-61
2021/05/23 06:05:59;;;;;;;1999.90;999.90;;;;;;;18.56;67.91;95930.97;5071910;28;20197;-62
2021/05/23 06:08:26;;;;;;;1999.90;999.90;;;;;;;19.05;65.94;95934.19;5071663;28;20249;-62
2021/05/23 06:10:53;;;;;;;1999.90;999.90;;;;;;;19.27;66.20;95928.38;5071662;28;20568;-61
2021/05/23 06:13:20;;;;;;;1999.90;999.90;;;;;;;19.31;64.95;95934.50;5071414;28;20546;-61
2021/05/23 06:15:48;;;;;;;1999.90;999.90;;;;;;;19.11;64.03;95953.94;5071840;28;20224;-61
2021/05/23 06:18:14;;;;;;;1999.90;999.90;;;;;;;19.06;61.65;95956.03;5071298;28;20243;-61
2021/05/23 06:20:41;;;;;;;1999.90;999.90;;;;;;;19.22;62.02;95948.94;5071606;28;20220;-61
2021/05/23 06:23:09;;;;;;;1999.90;999.90;;;;;;;19.41;59.85;95951.69;5071408;28;20604;-62
2021/05/23 06:25:35;;;;;;;1999.90;999.90;;;;;;;19.63;59.69;95951.16;5071429;28;20204;-61
2021/05/23 06:28:03;;;;;;;1999.90;999.90;;;;;;;19.65;60.40;95946.31;5071479;28;20197;-61
2021/05/23 06:30:30;;;;;;;1999.90;999.90;;;;;;;19.46;60.69;95948.06;5071180;28;20197;-61
2021/05/23 06:32:58;;;;;;;1999.90;999.90;;;;;;;19.64;59.21;95951.91;5070679;28;20196;-62
2021/05/23 06:35:25;;;;;;;1999.90;999.90;;;;;;;19.69;59.60;95955.06;5071054;28;20235;-62
2021/05/23 06:37:51;;;;;;;1999.90;999.90;;;;;;;19.62;61.88;95951.50;5071054;28;20528;-62
2021/05/23 06:40:18;;;;;;;1999.90;999.90;;;;;;;20.04;61.84;95951.75;5071015;28;20691;-61
2021/05/23 06:42:45;;;;;;;1999.90;999.90;;;;;;;20.30;58.89;95946.69;5071066;28;20311;-62
2021/05/23 06:45:13;;;;;;;1999.90;999.90;;;;;;;20.40;59.40;95946.19;5070734;28;20253;-61
2021/05/23 06:47:42;;;;;;;1999.90;999.90;;;;;;;20.67;59.18;95941.09;5070974;28;20200;-62
2021/05/23 06:50:11;;;;;;;1999.90;999.90;;;;;;;21.10;56.88;95935.50;5070681;28;20224;-62
2021/05/23 06:52:38;;;;;;;1999.90;999.90;;;;;;;21.14;55.54;95933.72;5070814;28;20276;-62
2021/05/23 06:55:06;;;;;;;1999.90;999.90;;;;;;;21.02;54.78;95933.88;5071084;28;20196;-62
2021/05/23 06:57:33;;;;;;;1999.90;999.90;;;;;;;20.90;54.80;95934.00;5070837;28;20215;-61
2021/05/23 07:00:00;;;;;;;1999.90;999.90;;;;;;;20.94;56.19;95929.53;5071343;28;20200;-61
2021/05/23 07:02:27;;;;;;;1999.90;999.90;;;;;;;21.27;57.50;95932.44;5070878;28;20239;-62
2021/05/23 07:04:54;;;;;;;1999.90;999.90;;;;;;;21.30;58.19;95931.75;5070581;28;20584;-61
2021/05/23 07:07:22;;;;;;;1999.90;999.90;;;;;;;20.92;57.46;95921.94;5070808;28;20204;-62
2021/05/23 07:09:48;;;;;;;1999.90;999.90;;;;;;;21.46;57.59;95915.78;5070395;28;20199;-60
2021/05/23 07:12:15;;;;;;;1999.90;999.90;;;;;;;21.82;58.47;95919.75;5070456;28;20196;-61
2021/05/23 07:14:42;;;;;;;1999.90;999.90;;;;;;;21.79;56.74;95915.19;5070284;28;20228;-63
2021/05/23 07:17:09;;;;;;;1999.90;999.90;;;;;;;21.87;56.51;95912.28;5070085;28;20320;-61
2021/05/23 07:19:36;;;;;;;1999.90;999.90;;;;;;;22.00;56.32;95910.25;5070345;28;20235;-61
2021/05/23 07:22:02;;;;;;;1999.90;999.90;;;;;;;21.81;54.94;95912.97;5070255;28;20263;-61
2021/05/23 07:24:30;;;;;;;1999.90;999.90;;;;;;;22.03;56.27;95912.19;5070465;28;20228;-61
2021/05/23 07:26:57;;;;;;;1999.90;999.90;;;;;;;22.30;55.51;95908.41;5070331;28;20192;-62
2021/05/23 07:29:24;;;;;;;1999.90;999.90;;;;;;;22.50;54.90;95909.06;5070025;28;20702;-61
2021/05/23 07:31:51;;;;;;;1999.90;999.90;;;;;;;22.60;55.47;95913.72;5070101;28;20697;-61
2021/05/23 07:34:17;;;;;;;1999.90;999.90;;;;;;;22.65;51.60;95913.41;5070015;28;20196;-63
2021/05/23 07:36:44;;;;;;;1999.90;999.90;;;;;;;22.50;51.54;95914.34;5070275;28;20207;-61
2021/05/23 07:39:11;;;;;;;1999.90;999.90;;;;;;;22.42;52.78;95910.06;5070320;28;20192;-61
2021/05/23 07:41:39;;;;;;;1999.90;999.90;;;;;;;22.16;56.78;95908.22;5070084;28;20188;-61
2021/05/23 07:44:06;;;;;;;1999.90;999.90;;;;;;;22.21;56.89;95904.50;5069914;28;20224;-61
2021/05/23 07:46:33;;;;;;;1999.90;999.90;;;;;;;22.50;54.67;95903.00;5069859;28;20196;-61
2021/05/23 07:49:00;;;;;;;1999.90;999.90;;;;;;;22.60;53.52;95910.31;5070102;28;20203;-62
2021/05/23 07:51:27;;;;;;;1999.90;999.90;;;;;;;22.20;53.89;95901.09;5070058;28;20228;-62
2021/05/23 07:53:54;;;;;;;1999.90;999.90;;;;;;;21.92;54.34;95897.25;5070216;28;20292;-62
2021/05/23 07:56:21;;;;;;;1999.90;999.90;;;;;;;22.38;54.19;95905.84;5070118;28;20234;-62
2021/05/23 07:58:48;;;;;;;1999.90;999.90;;;;;;;22.74;50.82;95897.25;5069956;28;20622;-60
2021/05/23 08:01:15;;;;;;;1999.90;999.90;;;;;;;22.66;50.97;95891.09;5069754;28;20671;-61
2021/05/23 08:03:42;;;;;;;1999.90;999.90;;;;;;;22.46;52.93;95891.59;5069951;28;20322;-62
2021/05/23 08:06:11;;;;;;;1999.90;999.90;;;;;;;22.87;50.52;95895.13;5070023;28;20288;-61
2021/05/23 08:08:37;;;;;;;1999.90;999.90;;;;;;;23.21;52.61;95895.88;5069883;28;20224;-62
2021/05/23 08:11:04;;;;;;;1999.90;999.90;;;;;;;23.32;52.15;95907.31;5069818;28;20736;-61
2021/05/23 08:13:31;;;;;;;1999.90;999.90;;;;;;;23.35;49.87;95903.97;5069777;28;20285;-61
2021/05/23 08:15:59;;;;;;;1999.90;999.90;;;;;;;23.49;50.16;95898.81;5069785;28;20196;-61
2021/05/23 08:18:29;;;;;;;1999.90;999.90;;;;;;;23.83;51.67;95894.91;5069913;28;20746;-62
2021/05/23 08:20:57;;;;;;;1999.90;999.90;;;;;;;24.01;52.09;95884.41;5069714;28;20258;-61
2021/05/23 08:23:25;;;;;;;1999.90;999.90;;;;;;;24.17;50.43;95886.81;5069342;28;20228;-62
2021/05/23 08:25:52;;;;;;;1999.90;999.90;;;;;;;24.03;50.86;95884.81;5069630;28;20193;-61
2021/05/23 08:28:19;;;;;;;1999.90;999.90;;;;;;;23.87;48.26;95893.03;5069573;28;20192;-61
2021/05/23 08:30:46;;;;;;;1999.90;999.90;;;;;;;23.75;49.74;95887.28;5069943;28;20228;-61
2021/05/23 08:33:14;;;;;;;1999.90;999.90;;;;;;;23.80;48.64;95885.03;5069595;28;20742;-61
2021/05/23 08:35:42;;;;;;;1999.90;999.90;;;;;;;23.85;50.59;95892.66;5069646;28;20668;-62
2021/05/23 08:38:09;;;;;;;1999.90;999.90;;;;;;;24.17;51.87;95886.81;5069387;28;20197;-61
2021/05/23 08:40:36;;;;;;;1999.90;999.90;;;;;;;24.32;49.50;95891.84;5069714;28;20189;-62
2021/05/23 08:43:04;;;;;;;1999.90;999.90;;;;;;;24.29;47.95;95891.81;5069246;28;20722;-61
2021/05/23 08:45:31;;;;;;;1999.90;999.90;;;;;;;24.34;48.75;95880.84;5069524;28;20205;-62
2021/05/23 08:47:59;;;;;;;1999.90;999.90;;;;;;;24.40;48.33;95882.78;5069490;28;20235;-61
2021/05/23 08:50:27;;;;;;;1999.90;999.90;;;;;;;24.56;45.97;95877.13;5069612;28;20189;-61
2021/05/23 08:52:55;;;;;;;1999.90;999.90;;;;;;;24.27;46.17;95880.78;5069296;28;20706;-61
2021/05/23 08:55:22;;;;;;;1999.90;999.90;;;;;;;24.20;45.97;95870.91;5071382;28;20245;-61
2021/05/23 08:57:51;;;;;;;1999.90;999.90;;;;;;;24.16;47.81;95867.41;5072980;28;20189;-62
2021/05/23 09:00:19;;;;;;;1999.90;999.90;;;;;;;24.11;48.83;95867.03;5073241;28;20188;-61
2021/05/23 09:02:54;;;;;;;1999.90;999.90;;;;;;;24.45;48.33;95865.72;5073105;28;20230;-62
2021/05/23 09:05:33;;;;;;;1999.90;999.90;;;;;;;24.86;47.97;95869.66;5073356;28;20204;-61
2021/05/23 09:08:01;;;;;;;1999.90;999.90;;;;;;;25.03;51.79;95867.44;5072903;28;20192;-60
2021/05/23 09:10:31;;;;;;;1999.90;999.90;;;;;;;25.29;48.90;95872.44;5072924;28;20188;-61
2021/05/23 09:12:58;;;;;;;1999.90;999.90;;;;;;;25.35;47.42;95870.94;5073008;28;20192;-61
2021/05/23 09:15:25;;;;;;;1999.90;999.90;;;;;;;25.31;46.89;95870.16;5072605;28;20193;-61
2021/05/23 09:18:03;;;;;;;1999.90;999.90;;;;;;;25.33;46.79;95859.91;5072726;28;20659;-61
2021/05/23 09:20:32;;;;;;;1999.90;999.90;;;;;;;25.37;47.22;95862.56;5072799;28;20635;-61
2021/05/23 09:23:01;;;;;;;1999.90;999.90;;;;;;;25.29;46.10;95869.78;5072758;28;20228;-61
2021/05/23 09:25:30;;;;;;;1999.90;999.90;;;;;;;25.52;45.82;95861.41;5072690;28;20197;-61
2021/05/23 09:28:00;;;;;;;1999.90;999.90;;;;;;;25.53;45.85;95861.03;5072817;28;20197;-61
2021/05/23 09:30:30;;;;;;;1999.90;999.90;;;;;;;25.82;43.88;95853.81;5072346;28;20193;-61
2021/05/23 09:32:58;;;;;;;1999.90;999.90;;;;;;;25.63;44.73;95857.66;5072354;28;20205;-61
2021/05/23 09:35:26;;;;;;;1999.90;999.90;;;;;;;25.71;42.61;95843.19;5072237;28;20258;-61
2021/05/23 09:38:05;;;;;;;1999.90;999.90;;;;;;;25.89;42.87;95847.75;5072413;28;20204;-62
2021/05/23 09:40:34;;;;;;;1999.90;999.90;;;;;;;25.93;43.18;95837.84;5072287;28;20192;-62
2021/05/23 09:43:02;;;;;;;1999.90;999.90;;;;;;;26.19;44.41;95834.75;5072411;28;20231;-61
2021/05/23 09:45:41;;;;;;;1999.90;999.90;;;;;;;26.59;39.83;95835.38;5072184;28;20200;-62
2021/05/23 09:48:16;;;;;;;1999.90;999.90;;;;;;;26.53;42.02;95832.34;5072318;28;20196;-62
2021/05/23 09:50:45;;;;;;;1999.90;999.90;;;;;;;26.37;42.62;95830.13;5072422;28;20222;-61
2021/05/23 09:53:24;;;;;;;1999.90;999.90;;;;;;;26.22;41.65;95827.88;5071878;28;20204;-61
2021/05/23 09:55:55;;;;;;;1999.90;999.90;;;;;;;26.34;43.19;95820.25;5071968;28;20203;-62
2021/05/23 09:58:24;;;;;;;1999.90;999.90;;;;;;;27.04;40.68;95818.41;5071956;28;20207;-63
2021/05/23 10:00:51;;;;;;;1999.90;999.90;;;;;;;27.06;38.54;95821.41;5071705;28;20222;-61
2021/05/23 10:03:27;;;;;;;1999.90;999.90;;;;;;;26.90;43.43;95815.78;5071538;28;20228;-63
2021/05/23 10:05:54;;;;;;;1999.90;999.90;;;;;;;26.92;42.89;95810.84;5070759;28;20699;-62
2021/05/23 10:08:22;;;;;;;1999.90;999.90;;;;;;;27.12;43.67;95806.50;5071650;28;20276;-61
2021/05/23 10:10:50;;;;;;;1999.90;999.90;;;;;;;27.24;42.52;95800.72;5071940;28;20194;-61
2021/05/23 10:13:18;;;;;;;1999.90;999.90;;;;;;;27.23;40.76;95801.84;5071713;28;20204;-62
2021/05/23 10:15:45;;;;;;;1999.90;999.90;;;;;;;27.18;40.74;95788.16;5071891;28;20188;-61
2021/05/23 10:18:12;;;;;;;1999.90;999.90;;;;;;;27.28;40.01;95790.75;5071631;28;20240;-64
2021/05/23 10:20:39;;;;;;;1999.90;999.90;;;;;;;27.25;43.06;95790.78;5071354;28;20197;-62
2021/05/23 10:23:12;;;;;;;1999.90;999.90;;;;;;;27.35;41.88;95788.00;5071209;28;20234;-61
2021/05/23 10:25:47;;;;;;;1999.90;999.90;;;;;;;27.48;43.22;95788.31;5071264;28;20228;-58
2021/05/23 10:28:15;;;;;;;1999.90;999.90;;;;;;;27.55;41.28;95782.91;5071214;28;20196;-59
2021/05/23 10:30:49;;;;;;;1999.90;999.90;;;;;;;27.63;38.86;95779.03;5071625;28;20276;-59
2021/05/23 10:33:16;;;;;;;1999.90;999.90;;;;;;;27.25;38.04;95774.75;5071038;28;20674;-59
2021/05/23 10:35:45;;;;;;;1999.90;999.90;;;;;;;27.18;40.10;95774.81;5071465;28;20196;-60
2021/05/23 10:38:13;;;;;;;1999.90;999.90;;;;;;;27.26;38.53;95778.94;5071136;28;20287;-59
2021/05/23 10:40:56;;;;;;;1999.90;999.90;;;;;;;27.16;39.68;95764.53;5071178;28;20257;-61
2021/05/23 10:43:25;;;;;;;1999.90;999.90;;;;;;;27.40;40.13;95765.47;5070848;28;20220;-60
2021/05/23 10:46:04;;;;;;;1999.90;999.90;;;;;;;27.58;41.29;95765.34;5070777;28;20223;-59
2021/05/23 10:48:31;;;;;;;1999.90;999.90;;;;;;;27.77;41.10;95762.88;5070931;28;20736;-59
2021/05/23 10:50:59;;;;;;;1999.90;999.90;;;;;;;27.95;41.05;95762.66;5070891;28;20235;-61
2021/05/23 10:53:35;;;;;;;1999.90;999.90;;;;;;;28.16;41.42;95765.13;5070954;28;20666;-59
2021/05/23 10:56:04;;;;;;;1999.90;999.90;;;;;;;28.25;39.29;95754.69;5070732;28;20228;-60
2021/05/23 10:58:30;;;;;;;1999.90;999.90;;;;;;;28.20;37.19;95757.06;5070917;28;20200;-60
2021/05/23 11:00:59;;;;;;;1999.90;999.90;;;;;;;27.93;37.33;95756.22;5070519;28;20229;-60